createdAt,value
2023-02-19T00:02:08.369Z,4.47
2023-02-19T00:04:35.977Z,4.47
2023-02-19T00:07:03.509Z,5.30
2023-02-19T00:09:31.122Z,8.30
2023-02-19T00:12:01.800Z,7.60
2023-02-19T00:14:44.569Z,8.90
2023-02-19T00:17:18.087Z,6.10
2023-02-19T00:19:57.640Z,7.73
2023-02-19T00:22:26.620Z,12.20
2023-02-19T00:24:54.376Z,7.63
2023-02-19T00:27:22.273Z,8.00
2023-02-19T00:29:50.093Z,8.80
2023-02-19T00:32:19.295Z,14.50
2023-02-19T00:34:47.046Z,13.73
2023-02-19T00:37:14.721Z,6.67
2023-02-19T00:39:42.449Z,7.80
2023-02-19T00:42:10.333Z,6.27
2023-02-19T00:44:37.987Z,10.37
2023-02-19T00:47:05.909Z,7.70
2023-02-19T00:49:34.938Z,8.43
2023-02-19T00:52:02.539Z,13.77
2023-02-19T00:54:31.431Z,8.17
2023-02-19T00:56:59.762Z,10.93
2023-02-19T00:59:27.590Z,13.40
2023-02-19T01:01:55.577Z,14.10
2023-02-19T01:04:23.136Z,14.63
2023-02-19T01:06:52.014Z,7.80
2023-02-19T01:09:19.843Z,8.70
2023-02-19T01:11:47.586Z,12.97
2023-02-19T01:14:15.571Z,15.90
2023-02-19T01:16:43.478Z,10.20
2023-02-19T01:19:13.900Z,11.50
2023-02-19T01:21:42.029Z,10.10
2023-02-19T01:24:12.658Z,12.53
2023-02-19T01:26:41.275Z,10.27
2023-02-19T01:29:08.838Z,8.73
2023-02-19T01:31:36.708Z,12.40
2023-02-19T01:34:05.157Z,11.60
2023-02-19T01:36:34.965Z,7.83
2023-02-19T01:39:04.817Z,9.90
2023-02-19T01:41:38.862Z,9.97
2023-02-19T01:44:08.796Z,9.63
2023-02-19T01:46:37.843Z,11.83
2023-02-19T01:49:09.582Z,8.83
2023-02-19T01:51:42.878Z,11.53
2023-02-19T01:54:14.507Z,9.80
2023-02-19T01:56:46.662Z,8.63
2023-02-19T01:59:15.053Z,6.80
2023-02-19T02:01:43.136Z,7.80
2023-02-19T02:04:12.718Z,7.40
2023-02-19T02:06:46.543Z,9.93
2023-02-19T02:09:32.068Z,5.17
2023-02-19T02:12:00.976Z,4.77
2023-02-19T02:14:31.797Z,4.13
2023-02-19T02:17:10.176Z,5.83
2023-02-19T02:20:16.429Z,4.00
2023-02-19T02:22:48.978Z,2.20
2023-02-19T02:25:46.333Z,4.97
2023-02-19T02:28:29.461Z,3.90
2023-02-19T02:31:00.720Z,3.03
2023-02-19T02:33:37.126Z,4.30
2023-02-19T02:36:08.725Z,4.77
2023-02-19T02:38:41.306Z,2.70
2023-02-19T02:41:09.937Z,2.23
2023-02-19T02:43:37.967Z,1.97
2023-02-19T02:46:07.266Z,1.97
2023-02-19T02:48:40.941Z,2.50
2023-02-19T02:51:16.871Z,3.90
2023-02-19T02:54:25.844Z,3.63
2023-02-19T02:56:56.459Z,5.60
2023-02-19T02:59:26.910Z,4.67
2023-02-19T03:02:12.331Z,1.37
2023-02-19T03:05:05.802Z,1.07
2023-02-19T03:07:38.057Z,1.17
2023-02-19T03:10:09.043Z,2.10
2023-02-19T03:12:55.884Z,1.13
2023-02-19T03:15:43.365Z,0.80
2023-02-19T03:18:31.572Z,1.00
2023-02-19T03:20:59.707Z,1.43
2023-02-19T03:23:45.949Z,1.43
2023-02-19T03:26:14.897Z,1.23
2023-02-19T03:29:09.841Z,1.77
2023-02-19T03:31:43.156Z,1.13
2023-02-19T03:34:18.417Z,1.17
2023-02-19T03:36:51.760Z,1.50
2023-02-19T03:39:23.206Z,0.80
2023-02-19T03:41:59.820Z,1.43
2023-02-19T03:44:39.618Z,1.67
2023-02-19T03:47:16.560Z,2.73
2023-02-19T03:49:49.415Z,6.80
2023-02-19T03:52:25.808Z,1.00
2023-02-19T03:55:00.011Z,1.63
2023-02-19T03:57:37.740Z,0.97
2023-02-19T04:00:12.593Z,1.60
2023-02-19T04:02:47.003Z,0.70
2023-02-19T04:05:19.274Z,0.70
2023-02-19T04:07:51.537Z,0.70
2023-02-19T04:10:24.901Z,0.60
2023-02-19T04:12:58.610Z,2.20
2023-02-19T04:15:30.947Z,0.70
2023-02-19T04:18:03.759Z,0.70
2023-02-19T04:20:37.687Z,0.70
2023-02-19T04:23:05.489Z,1.57
2023-02-19T04:25:34.329Z,1.10
2023-02-19T04:28:02.774Z,0.73
2023-02-19T04:30:30.599Z,0.90
2023-02-19T04:32:58.537Z,1.23
2023-02-19T04:35:26.334Z,0.80
2023-02-19T04:37:55.351Z,1.00
2023-02-19T04:40:23.090Z,0.80
2023-02-19T04:42:52.866Z,0.77
2023-02-19T04:45:20.633Z,0.70
2023-02-19T04:47:48.518Z,0.80
2023-02-19T04:50:16.179Z,0.80
2023-02-19T04:52:44.858Z,1.03
2023-02-19T04:55:13.797Z,0.70
2023-02-19T04:57:41.281Z,0.80
2023-02-19T05:00:10.567Z,0.97
2023-02-19T05:02:38.231Z,1.10
2023-02-19T05:05:06.291Z,1.30
2023-02-19T05:07:35.072Z,1.53
2023-02-19T05:10:02.676Z,1.27
2023-02-19T05:12:32.121Z,1.17
2023-02-19T05:14:59.709Z,0.93
2023-02-19T05:17:27.412Z,2.40
2023-02-19T05:19:54.871Z,1.63
2023-02-19T05:22:22.674Z,1.10
2023-02-19T05:24:50.184Z,1.07
2023-02-19T05:27:17.814Z,1.30
2023-02-19T05:29:46.706Z,0.97
2023-02-19T05:32:14.240Z,1.10
2023-02-19T05:34:42.280Z,2.07
2023-02-19T05:37:09.795Z,1.10
2023-02-19T05:39:37.296Z,1.00
2023-02-19T05:42:04.995Z,1.37
2023-02-19T05:44:32.441Z,1.83
2023-02-19T05:47:01.312Z,0.93
2023-02-19T05:49:29.028Z,2.17
2023-02-19T05:51:56.624Z,2.30
2023-02-19T05:54:24.295Z,0.80
2023-02-19T05:56:51.843Z,0.80
2023-02-19T05:59:21.729Z,1.60
2023-02-19T06:01:50.187Z,3.17
2023-02-19T06:04:20.341Z,0.80
2023-02-19T06:06:49.072Z,1.40
2023-02-19T06:09:17.479Z,0.80
2023-02-19T06:11:45.484Z,1.53
2023-02-19T06:14:14.446Z,0.80
2023-02-19T06:16:42.504Z,0.93
2023-02-19T06:19:10.320Z,1.30
2023-02-19T06:21:39.138Z,1.10
2023-02-19T06:24:07.850Z,1.10
2023-02-19T06:26:35.430Z,1.10
2023-02-19T06:29:03.325Z,1.00
2023-02-19T06:31:30.962Z,0.80
2023-02-19T06:33:58.637Z,1.37
2023-02-19T06:36:26.244Z,1.70
2023-02-19T06:38:55.144Z,1.57
2023-02-19T06:41:22.706Z,1.50
2023-02-19T06:43:50.524Z,1.60
2023-02-19T06:46:18.428Z,2.03
2023-02-19T06:48:47.223Z,1.40
2023-02-19T06:51:18.545Z,1.20
2023-02-19T06:53:46.577Z,1.40
2023-02-19T06:56:27.213Z,1.57
2023-02-19T06:58:55.643Z,1.50
2023-02-19T07:01:23.538Z,1.10
2023-02-19T07:03:52.429Z,1.50
2023-02-19T07:06:20.074Z,1.40
2023-02-19T07:08:47.748Z,2.10
2023-02-19T07:11:15.334Z,1.60
2023-02-19T07:13:44.123Z,1.90
2023-02-19T07:16:13.063Z,3.40
2023-02-19T07:18:41.520Z,3.30
2023-02-19T07:21:11.292Z,1.53
2023-02-19T07:23:39.172Z,3.13
2023-02-19T07:26:10.359Z,3.37
2023-02-19T07:28:37.957Z,2.03
2023-02-19T07:31:06.976Z,2.53
2023-02-19T07:33:34.707Z,4.00
2023-02-19T07:36:02.303Z,2.80
2023-02-19T07:38:30.100Z,1.97
2023-02-19T07:40:59.684Z,2.80
2023-02-19T07:43:28.910Z,3.90
2023-02-19T07:45:56.639Z,3.90
2023-02-19T07:48:25.679Z,2.87
2023-02-19T07:50:53.657Z,3.20
2023-02-19T07:53:21.380Z,3.90
2023-02-19T07:55:48.996Z,2.73
2023-02-19T07:58:16.836Z,2.43
2023-02-19T08:00:44.506Z,3.07
2023-02-19T08:03:11.749Z,2.27
2023-02-19T08:05:42.717Z,2.17
2023-02-19T08:08:12.095Z,3.23
2023-02-19T08:10:57.710Z,5.13
2023-02-19T08:13:27.338Z,2.87
2023-02-19T08:16:07.533Z,2.53
2023-02-19T08:18:42.583Z,3.00
2023-02-19T08:21:12.475Z,2.90
2023-02-19T08:23:40.943Z,3.63
2023-02-19T08:26:09.790Z,5.10
2023-02-19T08:28:37.505Z,3.70
2023-02-19T08:31:07.028Z,6.87
2023-02-19T08:33:35.019Z,3.03
2023-02-19T08:36:04.615Z,3.73
2023-02-19T08:38:35.884Z,3.93
2023-02-19T08:41:05.966Z,2.60
2023-02-19T08:43:33.696Z,4.97
2023-02-19T08:46:01.283Z,4.93
2023-02-19T08:48:28.819Z,4.23
2023-02-19T08:50:58.152Z,4.40
2023-02-19T08:53:26.325Z,8.30
2023-02-19T08:55:55.191Z,10.30
2023-02-19T08:58:26.117Z,5.97
2023-02-19T09:00:54.254Z,5.80
2023-02-19T09:03:21.872Z,11.30
2023-02-19T09:05:51.404Z,10.00
2023-02-19T09:08:19.786Z,9.10
2023-02-19T09:11:06.102Z,13.23
2023-02-19T09:13:35.286Z,7.63
2023-02-19T09:16:04.717Z,10.33
2023-02-19T09:18:35.530Z,8.47
2023-02-19T09:21:04.599Z,9.33
2023-02-19T09:23:34.032Z,7.50
2023-02-19T09:26:07.007Z,7.40
2023-02-19T09:28:34.964Z,6.60
2023-02-19T09:31:06.288Z,6.93
2023-02-19T09:33:34.630Z,4.80
2023-02-19T09:36:02.685Z,7.50
2023-02-19T09:38:30.886Z,3.53
2023-02-19T09:41:00.123Z,5.97
2023-02-19T09:43:30.128Z,4.13
2023-02-19T09:46:04.029Z,3.60
2023-02-19T09:48:32.074Z,3.33
2023-02-19T09:51:01.694Z,7.47
2023-02-19T09:53:40.439Z,4.57
2023-02-19T09:56:08.839Z,3.30
2023-02-19T09:58:44.854Z,4.80
2023-02-19T10:01:14.393Z,2.77
2023-02-19T10:03:46.914Z,3.70
2023-02-19T10:06:20.403Z,4.90
2023-02-19T10:08:49.005Z,5.33
2023-02-19T10:11:17.174Z,4.17
2023-02-19T10:13:50.109Z,2.10
2023-02-19T10:16:21.382Z,3.37
2023-02-19T10:18:49.506Z,5.63
2023-02-19T10:21:20.553Z,4.63
2023-02-19T10:23:52.061Z,2.30
2023-02-19T10:26:20.475Z,3.27
2023-02-19T10:28:49.657Z,3.73
2023-02-19T10:31:20.964Z,5.80
2023-02-19T10:33:50.976Z,3.27
2023-02-19T10:36:27.521Z,4.70
2023-02-19T10:38:57.136Z,4.40
2023-02-19T10:41:26.923Z,5.57
2023-02-19T10:44:06.628Z,3.17
2023-02-19T10:46:38.803Z,4.17
2023-02-19T10:49:17.024Z,2.10
2023-02-19T10:51:45.008Z,3.00
2023-02-19T10:54:19.882Z,3.37
2023-02-19T10:56:47.843Z,2.80
2023-02-19T10:59:25.083Z,4.37
2023-02-19T11:02:06.641Z,3.50
2023-02-19T11:04:38.685Z,5.07
2023-02-19T11:07:10.896Z,4.53
2023-02-19T11:09:41.706Z,2.60
2023-02-19T11:12:11.182Z,2.70
2023-02-19T11:14:43.619Z,2.03
2023-02-19T11:17:23.991Z,3.20
2023-02-19T11:19:54.421Z,2.63
2023-02-19T11:22:31.702Z,2.17
2023-02-19T11:25:04.798Z,6.20
2023-02-19T11:27:33.348Z,1.70
2023-02-19T11:30:35.239Z,1.77
2023-02-19T11:33:27.222Z,2.57
2023-02-19T11:36:01.346Z,2.10
2023-02-19T11:38:29.284Z,1.37
2023-02-19T11:41:09.660Z,2.33
2023-02-19T11:44:05.700Z,3.30
2023-02-19T11:46:42.076Z,5.67
2023-02-19T11:49:22.225Z,1.83
2023-02-19T11:52:10.852Z,2.33
2023-02-19T11:54:50.868Z,2.83
2023-02-19T11:57:33.775Z,5.43
2023-02-19T12:00:17.425Z,3.50
2023-02-19T12:03:05.461Z,5.60
2023-02-19T12:05:45.097Z,3.67
2023-02-19T12:08:46.489Z,1.67
2023-02-19T12:11:29.931Z,2.90
2023-02-19T12:14:18.918Z,1.63
2023-02-19T12:16:51.139Z,5.77
2023-02-19T12:19:31.916Z,2.50
2023-02-19T12:22:13.241Z,1.90
2023-02-19T12:24:58.882Z,3.30
2023-02-19T12:27:40.561Z,3.47
2023-02-19T12:30:26.529Z,2.10
2023-02-19T12:33:06.941Z,8.93
2023-02-19T12:35:50.971Z,2.90
2023-02-19T12:38:24.105Z,2.83
2023-02-19T12:41:15.337Z,2.00
2023-02-19T12:43:51.581Z,1.60
2023-02-19T12:46:23.772Z,1.50
2023-02-19T12:48:59.993Z,1.80
2023-02-19T12:51:34.017Z,1.90
2023-02-19T12:54:06.093Z,3.33
2023-02-19T12:56:37.284Z,2.97
2023-02-19T12:59:08.191Z,1.20
2023-02-19T13:01:41.598Z,0.97
2023-02-19T13:04:19.218Z,5.50
2023-02-19T13:06:54.976Z,5.73
2023-02-19T13:09:29.161Z,1.77
2023-02-19T13:12:00.838Z,1.17
2023-02-19T13:14:34.105Z,1.20
2023-02-19T13:17:08.606Z,1.60
2023-02-19T13:20:38.041Z,1.07
2023-02-19T13:23:30.513Z,1.00
2023-02-19T13:26:13.890Z,2.20
2023-02-19T13:28:55.017Z,1.60
2023-02-19T13:31:40.484Z,1.37
2023-02-19T13:34:19.499Z,3.03
2023-02-19T13:36:48.257Z,1.37
2023-02-19T13:39:20.697Z,2.13
2023-02-19T13:41:52.031Z,2.13
2023-02-19T13:44:22.620Z,3.93
2023-02-19T13:46:51.447Z,0.90
2023-02-19T13:49:45.541Z,1.30
2023-02-19T13:52:40.395Z,6.60
2023-02-19T13:55:46.600Z,2.23
2023-02-19T13:58:39.571Z,4.90
2023-02-19T14:01:09.085Z,1.17
2023-02-19T14:03:54.389Z,2.10
2023-02-19T14:06:22.002Z,1.63
2023-02-19T14:08:55.985Z,1.60
2023-02-19T14:12:01.231Z,6.90
2023-02-19T14:14:36.276Z,3.83
2023-02-19T14:17:25.321Z,1.27
2023-02-19T14:19:56.002Z,4.33
2023-02-19T14:23:06.004Z,2.10
2023-02-19T14:25:46.743Z,6.83
2023-02-19T14:28:32.909Z,2.73
2023-02-19T14:31:10.379Z,1.70
2023-02-19T14:33:41.121Z,1.40
2023-02-19T14:36:19.702Z,1.63
2023-02-19T14:38:50.903Z,2.10
2023-02-19T14:41:19.898Z,1.50
2023-02-19T14:43:51.263Z,1.93
2023-02-19T14:46:28.807Z,1.40
2023-02-19T14:48:59.552Z,5.53
2023-02-19T14:51:33.391Z,1.77
2023-02-19T14:54:10.692Z,2.23
2023-02-19T14:56:38.277Z,4.90
2023-02-19T14:59:25.526Z,2.17
2023-02-19T15:01:59.696Z,5.53
2023-02-19T15:04:29.883Z,2.30
2023-02-19T15:07:01.119Z,3.30
2023-02-19T15:09:32.776Z,7.53
2023-02-19T15:12:02.665Z,4.17
2023-02-19T15:14:32.469Z,4.10
2023-02-19T15:17:04.193Z,2.90
2023-02-19T15:19:34.968Z,2.33
2023-02-19T15:22:03.299Z,7.40
2023-02-19T15:24:31.036Z,1.80
2023-02-19T15:26:58.695Z,4.30
2023-02-19T15:29:28.617Z,2.70
2023-02-19T15:31:58.262Z,2.10
2023-02-19T15:34:29.802Z,5.03
2023-02-19T15:36:59.323Z,2.33
2023-02-19T15:39:33.612Z,3.73
2023-02-19T15:42:04.753Z,5.07
2023-02-19T15:44:39.663Z,3.10
2023-02-19T15:47:13.772Z,3.63
2023-02-19T15:49:49.860Z,4.37
2023-02-19T15:52:28.365Z,3.63
2023-02-19T15:55:02.998Z,5.13
2023-02-19T15:57:35.781Z,3.53
2023-02-19T16:00:11.102Z,4.13
2023-02-19T16:02:41.760Z,5.03
2023-02-19T16:05:17.834Z,4.80
2023-02-19T16:07:45.332Z,3.23
2023-02-19T16:10:22.945Z,5.90
2023-02-19T16:12:58.273Z,3.07
2023-02-19T16:15:26.787Z,3.40
2023-02-19T16:17:55.212Z,2.70
2023-02-19T16:20:27.139Z,5.97
2023-02-19T16:22:59.877Z,3.70
2023-02-19T16:25:34.018Z,4.00
2023-02-19T16:28:11.814Z,3.77
2023-02-19T16:30:39.690Z,4.70
2023-02-19T16:33:34.730Z,4.37
2023-02-19T16:39:24.802Z,4.37
2023-02-19T16:42:19.670Z,4.53
2023-02-19T16:45:14.525Z,5.13
2023-02-19T16:47:48.149Z,8.43
2023-02-19T16:50:18.612Z,7.10
2023-02-19T16:52:53.279Z,3.90
2023-02-19T16:55:22.301Z,2.97
2023-02-19T16:57:50.450Z,5.07
2023-02-19T17:00:19.763Z,4.97
2023-02-19T17:02:48.185Z,4.67
2023-02-19T17:05:16.584Z,4.13
2023-02-19T17:07:44.109Z,3.77
2023-02-19T17:10:14.412Z,6.63
2023-02-19T17:12:43.558Z,3.77
2023-02-19T17:15:12.660Z,4.00
2023-02-19T17:17:41.111Z,2.93
2023-02-19T17:20:22.344Z,4.47
2023-02-19T17:22:49.979Z,4.93
2023-02-19T17:25:17.665Z,4.87
2023-02-19T17:27:51.528Z,3.67
2023-02-19T17:30:55.682Z,3.80
2023-02-19T17:33:23.300Z,5.03
2023-02-19T17:35:51.048Z,6.30
2023-02-19T17:38:18.506Z,6.30
2023-02-19T17:40:47.354Z,4.70
2023-02-19T17:43:25.512Z,4.50
2023-02-19T17:45:53.159Z,3.57
2023-02-19T17:48:20.644Z,4.70
2023-02-19T17:50:49.194Z,4.63
2023-02-19T17:53:16.949Z,6.23
2023-02-19T17:55:44.666Z,6.80
2023-02-19T17:58:12.272Z,4.73
2023-02-19T18:00:46.930Z,4.63
2023-02-19T18:03:14.504Z,10.97
2023-02-19T18:05:43.101Z,5.90
2023-02-19T18:08:10.682Z,10.23
2023-02-19T18:10:38.164Z,6.17
2023-02-19T18:13:06.572Z,6.53
2023-02-19T18:15:34.246Z,6.67
2023-02-19T18:18:04.990Z,10.17
2023-02-19T18:20:47.047Z,5.70
2023-02-19T18:23:14.512Z,8.00
2023-02-19T18:25:42.129Z,6.63
2023-02-19T18:28:09.667Z,6.87
2023-02-19T18:30:37.269Z,6.03
2023-02-19T18:33:06.188Z,5.97
2023-02-19T18:35:34.925Z,9.00
2023-02-19T18:38:02.592Z,7.40
2023-02-19T18:40:30.086Z,7.33
2023-02-19T18:42:58.669Z,8.73
2023-02-19T18:45:26.438Z,12.20
2023-02-19T18:47:53.940Z,7.07
2023-02-19T18:50:24.154Z,12.80
2023-02-19T18:52:51.715Z,10.23
2023-02-19T18:55:19.466Z,10.77
2023-02-19T18:57:47.712Z,11.50
2023-02-19T19:00:19.382Z,7.60
2023-02-19T19:02:49.680Z,9.50
2023-02-19T19:05:22.516Z,6.37
2023-02-19T19:07:52.639Z,9.87
2023-02-19T19:10:20.711Z,8.63
2023-02-19T19:12:48.283Z,11.87
2023-02-19T19:15:18.194Z,14.00
2023-02-19T19:17:46.336Z,9.80
2023-02-19T19:20:14.538Z,20.70
2023-02-19T19:22:42.073Z,14.67
2023-02-19T19:25:13.930Z,22.97
2023-02-19T19:27:41.782Z,30.60
2023-02-19T19:30:09.943Z,15.77
2023-02-19T19:32:40.618Z,8.07
2023-02-19T19:35:08.861Z,8.97
2023-02-19T19:37:36.384Z,11.57
2023-02-19T19:40:04.798Z,7.83
2023-02-19T19:42:33.647Z,11.03
2023-02-19T19:45:02.084Z,6.40
2023-02-19T19:47:29.670Z,6.90
2023-02-19T19:49:57.298Z,8.53
2023-02-19T19:52:25.361Z,12.67
2023-02-19T19:54:54.406Z,9.63
2023-02-19T19:57:23.071Z,10.13
2023-02-19T19:59:52.175Z,7.17
2023-02-19T20:02:20.119Z,8.87
2023-02-19T20:04:49.601Z,9.53
2023-02-19T20:07:17.452Z,9.37
2023-02-19T20:09:48.333Z,6.37
2023-02-19T20:12:16.201Z,6.90
2023-02-19T20:14:45.457Z,10.90
2023-02-19T20:17:14.438Z,6.67
2023-02-19T20:19:42.068Z,9.20
2023-02-19T20:22:09.614Z,10.80
2023-02-19T20:24:37.101Z,10.17
2023-02-19T20:27:05.464Z,9.60
2023-02-19T20:29:34.435Z,7.87
2023-02-19T20:32:03.575Z,15.00
2023-02-19T20:34:33.610Z,9.37
2023-02-19T20:37:01.197Z,9.43
2023-02-19T20:39:29.796Z,9.50
2023-02-19T20:41:59.030Z,6.30
2023-02-19T20:44:31.626Z,9.43
2023-02-19T20:47:00.829Z,9.57
2023-02-19T20:49:30.109Z,10.03
2023-02-19T20:52:00.362Z,9.03
2023-02-19T20:54:30.396Z,9.57
2023-02-19T20:57:00.139Z,6.80
2023-02-19T20:59:35.312Z,5.60
2023-02-19T21:02:05.840Z,9.53
2023-02-19T21:04:33.823Z,9.33
2023-02-19T21:07:02.889Z,7.33
2023-02-19T21:09:30.399Z,8.10
2023-02-19T21:11:58.414Z,12.07
2023-02-19T21:14:26.582Z,10.00
2023-02-19T21:16:54.218Z,7.37
2023-02-19T21:19:21.896Z,9.33
2023-02-19T21:21:49.676Z,6.73
2023-02-19T21:24:18.545Z,11.00
2023-02-19T21:26:46.097Z,8.43
2023-02-19T21:29:17.116Z,10.03
2023-02-19T21:31:47.318Z,7.57
2023-02-19T21:34:16.957Z,8.63
2023-02-19T21:36:44.774Z,11.30
2023-02-19T21:39:14.080Z,7.63
2023-02-19T21:41:42.983Z,15.30
2023-02-19T21:44:11.372Z,14.87
2023-02-19T21:46:39.403Z,14.50
2023-02-19T21:49:07.305Z,14.73
2023-02-19T21:51:37.236Z,13.30
2023-02-19T21:54:06.063Z,21.43
2023-02-19T21:56:36.487Z,7.73
2023-02-19T21:59:05.696Z,7.53
2023-02-19T22:01:38.514Z,9.53
2023-02-19T22:04:07.315Z,6.07
2023-02-19T22:06:35.652Z,10.10
2023-02-19T22:09:03.957Z,7.03
2023-02-19T22:11:31.897Z,5.57
2023-02-19T22:13:59.790Z,7.27
2023-02-19T22:16:29.207Z,7.40
2023-02-19T22:18:58.666Z,7.10
2023-02-19T22:21:28.454Z,5.90
2023-02-19T22:23:56.180Z,9.10
2023-02-19T22:26:25.588Z,6.13
2023-02-19T22:28:54.205Z,4.97
2023-02-19T22:31:23.595Z,7.47
2023-02-19T22:33:52.597Z,9.43
2023-02-19T22:36:22.040Z,7.27
2023-02-19T22:38:50.014Z,5.87
2023-02-19T22:41:18.845Z,9.43
2023-02-19T22:43:47.133Z,10.50
2023-02-19T22:46:17.415Z,9.33
2023-02-19T22:48:45.164Z,9.93
2023-02-19T22:51:18.987Z,8.07
2023-02-19T22:53:47.131Z,6.87
2023-02-19T22:56:16.343Z,8.77
2023-02-19T22:58:44.837Z,10.20
2023-02-19T23:01:13.496Z,10.20
2023-02-19T23:03:48.602Z,11.30
2023-02-19T23:06:18.736Z,8.40
2023-02-19T23:08:46.251Z,8.80
2023-02-19T23:11:13.890Z,8.47
2023-02-19T23:13:42.472Z,10.07
2023-02-19T23:16:10.229Z,10.07
2023-02-19T23:18:37.960Z,8.43
2023-02-19T23:21:05.636Z,9.47
2023-02-19T23:23:34.442Z,12.17
2023-02-19T23:26:01.930Z,12.50
2023-02-19T23:28:29.429Z,6.50
2023-02-19T23:30:57.047Z,7.90
2023-02-19T23:33:24.603Z,9.33
2023-02-19T23:35:52.088Z,10.30
2023-02-19T23:38:19.765Z,11.00
2023-02-19T23:40:50.597Z,14.43
2023-02-19T23:43:18.715Z,14.47
2023-02-19T23:45:46.256Z,9.47
2023-02-19T23:48:13.860Z,9.40
2023-02-19T23:50:41.368Z,10.57
2023-02-19T23:53:08.907Z,9.70
2023-02-19T23:55:36.523Z,9.27
2023-02-19T23:58:05.521Z,7.83
